sensor_id;sensor_type;location;lat;lon;timestamp;P1;durP1;ratioP1;P2;durP2;ratioP2
51836;SDS011;38941;53.254;6.600;2023-02-28T00:01:47;6.65;;;1.90;;
51836;SDS011;38941;53.254;6.600;2023-02-28T00:03:48;4.18;;;1.67;;
51836;SDS011;38941;53.254;6.600;2023-02-28T00:05:49;13.38;;;3.80;;
51836;SDS011;38941;53.254;6.600;2023-02-28T00:07:51;4.00;;;1.67;;
51836;SDS011;38941;53.254;6.600;2023-02-28T00:09:51;5.95;;;2.17;;
51836;SDS011;38941;53.254;6.600;2023-02-28T00:11:52;8.55;;;3.10;;
51836;SDS011;38941;53.254;6.600;2023-02-28T00:13:53;6.35;;;2.40;;
51836;SDS011;38941;53.254;6.600;2023-02-28T00:16:00;10.60;;;2.45;;
51836;SDS011;38941;53.254;6.600;2023-02-28T00:20:05;6.72;;;1.90;;
51836;SDS011;38941;53.254;6.600;2023-02-28T00:22:16;6.20;;;1.95;;
51836;SDS011;38941;53.254;6.600;2023-02-28T00:24:18;10.70;;;2.35;;
51836;SDS011;38941;53.254;6.600;2023-02-28T00:26:20;9.50;;;1.95;;
51836;SDS011;38941;53.254;6.600;2023-02-28T00:28:21;6.47;;;1.90;;
51836;SDS011;38941;53.254;6.600;2023-02-28T00:30:23;4.95;;;2.67;;
51836;SDS011;38941;53.254;6.600;2023-02-28T00:32:24;5.35;;;1.70;;
51836;SDS011;38941;53.254;6.600;2023-02-28T00:34:25;6.78;;;1.60;;
51836;SDS011;38941;53.254;6.600;2023-02-28T00:36:26;7.40;;;1.77;;
51836;SDS011;38941;53.254;6.600;2023-02-28T00:38:27;4.40;;;2.20;;
51836;SDS011;38941;53.254;6.600;2023-02-28T00:40:28;5.18;;;1.88;;
51836;SDS011;38941;53.254;6.600;2023-02-28T00:42:29;6.63;;;1.63;;
51836;SDS011;38941;53.254;6.600;2023-02-28T00:44:30;5.03;;;1.70;;
51836;SDS011;38941;53.254;6.600;2023-02-28T00:46:32;2.72;;;1.50;;
51836;SDS011;38941;53.254;6.600;2023-02-28T00:48:33;5.57;;;1.90;;
51836;SDS011;38941;53.254;6.600;2023-02-28T00:50:35;4.55;;;1.30;;
51836;SDS011;38941;53.254;6.600;2023-02-28T00:52:36;5.20;;;1.65;;
51836;SDS011;38941;53.254;6.600;2023-02-28T00:54:37;5.93;;;2.03;;
51836;SDS011;38941;53.254;6.600;2023-02-28T00:56:39;5.63;;;1.48;;
51836;SDS011;38941;53.254;6.600;2023-02-28T00:58:40;4.57;;;1.40;;
51836;SDS011;38941;53.254;6.600;2023-02-28T01:00:42;2.38;;;1.52;;
51836;SDS011;38941;53.254;6.600;2023-02-28T01:02:43;6.72;;;1.77;;
51836;SDS011;38941;53.254;6.600;2023-02-28T01:04:44;7.07;;;2.42;;
51836;SDS011;38941;53.254;6.600;2023-02-28T01:06:45;5.13;;;1.70;;
51836;SDS011;38941;53.254;6.600;2023-02-28T01:08:46;6.57;;;1.63;;
51836;SDS011;38941;53.254;6.600;2023-02-28T01:10:48;9.40;;;2.97;;
51836;SDS011;38941;53.254;6.600;2023-02-28T01:12:49;5.90;;;1.52;;
51836;SDS011;38941;53.254;6.600;2023-02-28T01:14:50;8.45;;;2.33;;
51836;SDS011;38941;53.254;6.600;2023-02-28T01:16:50;5.95;;;1.55;;
51836;SDS011;38941;53.254;6.600;2023-02-28T01:18:51;6.90;;;1.48;;
51836;SDS011;38941;53.254;6.600;2023-02-28T01:20:52;7.65;;;1.63;;
51836;SDS011;38941;53.254;6.600;2023-02-28T01:22:53;4.18;;;1.67;;
51836;SDS011;38941;53.254;6.600;2023-02-28T01:24:54;7.25;;;2.72;;
51836;SDS011;38941;53.254;6.600;2023-02-28T01:26:55;8.18;;;2.25;;
51836;SDS011;38941;53.254;6.600;2023-02-28T01:28:56;4.10;;;1.50;;
51836;SDS011;38941;53.254;6.600;2023-02-28T01:30:58;7.35;;;1.73;;
51836;SDS011;38941;53.254;6.600;2023-02-28T01:32:58;7.47;;;1.60;;
51836;SDS011;38941;53.254;6.600;2023-02-28T01:35:00;7.45;;;2.05;;
51836;SDS011;38941;53.254;6.600;2023-02-28T01:37:00;4.82;;;1.50;;
51836;SDS011;38941;53.254;6.600;2023-02-28T01:39:01;2.88;;;1.65;;
51836;SDS011;38941;53.254;6.600;2023-02-28T01:41:03;5.45;;;1.70;;
51836;SDS011;38941;53.254;6.600;2023-02-28T01:43:27;4.80;;;1.80;;
51836;SDS011;38941;53.254;6.600;2023-02-28T01:45:28;7.28;;;1.50;;
51836;SDS011;38941;53.254;6.600;2023-02-28T01:47:31;7.35;;;1.33;;
51836;SDS011;38941;53.254;6.600;2023-02-28T01:49:38;3.80;;;1.10;;
51836;SDS011;38941;53.254;6.600;2023-02-28T01:53:56;7.63;;;1.17;;
51836;SDS011;38941;53.254;6.600;2023-02-28T01:56:01;6.00;;;1.30;;
51836;SDS011;38941;53.254;6.600;2023-02-28T01:58:06;8.40;;;1.40;;
51836;SDS011;38941;53.254;6.600;2023-02-28T02:00:10;3.42;;;0.98;;
51836;SDS011;38941;53.254;6.600;2023-02-28T02:02:14;7.82;;;1.10;;
51836;SDS011;38941;53.254;6.600;2023-02-28T02:04:17;5.90;;;1.48;;
51836;SDS011;38941;53.254;6.600;2023-02-28T02:06:30;3.38;;;1.13;;
51836;SDS011;38941;53.254;6.600;2023-02-28T02:08:37;7.63;;;1.13;;
51836;SDS011;38941;53.254;6.600;2023-02-28T02:10:45;4.13;;;1.60;;
51836;SDS011;38941;53.254;6.600;2023-02-28T02:17:32;5.35;;;1.20;;
51836;SDS011;38941;53.254;6.600;2023-02-28T02:19:50;5.38;;;1.50;;
51836;SDS011;38941;53.254;6.600;2023-02-28T02:36:23;3.33;;;1.20;;
51836;SDS011;38941;53.254;6.600;2023-02-28T02:40:43;4.13;;;1.70;;
51836;SDS011;38941;53.254;6.600;2023-02-28T02:42:55;4.55;;;1.23;;
51836;SDS011;38941;53.254;6.600;2023-02-28T02:45:04;5.53;;;1.23;;
51836;SDS011;38941;53.254;6.600;2023-02-28T02:47:10;3.20;;;1.00;;
51836;SDS011;38941;53.254;6.600;2023-02-28T02:51:48;4.85;;;1.58;;
51836;SDS011;38941;53.254;6.600;2023-02-28T02:53:56;8.05;;;1.58;;
51836;SDS011;38941;53.254;6.600;2023-02-28T02:56:05;9.63;;;1.45;;
51836;SDS011;38941;53.254;6.600;2023-02-28T02:58:08;5.80;;;1.00;;
51836;SDS011;38941;53.254;6.600;2023-02-28T03:00:14;2.58;;;1.08;;
51836;SDS011;38941;53.254;6.600;2023-02-28T03:02:18;4.03;;;0.95;;
51836;SDS011;38941;53.254;6.600;2023-02-28T03:04:24;6.13;;;1.25;;
51836;SDS011;38941;53.254;6.600;2023-02-28T03:06:28;6.32;;;1.25;;
51836;SDS011;38941;53.254;6.600;2023-02-28T03:08:29;3.05;;;1.05;;
51836;SDS011;38941;53.254;6.600;2023-02-28T03:10:43;4.00;;;1.05;;
51836;SDS011;38941;53.254;6.600;2023-02-28T03:12:51;4.25;;;1.30;;
51836;SDS011;38941;53.254;6.600;2023-02-28T03:15:05;6.20;;;2.13;;
51836;SDS011;38941;53.254;6.600;2023-02-28T03:19:45;7.82;;;2.40;;
51836;SDS011;38941;53.254;6.600;2023-02-28T03:27:07;8.32;;;1.63;;
51836;SDS011;38941;53.254;6.600;2023-02-28T03:31:21;7.57;;;3.05;;
51836;SDS011;38941;53.254;6.600;2023-02-28T03:33:30;11.70;;;3.17;;
51836;SDS011;38941;53.254;6.600;2023-02-28T03:35:54;8.20;;;3.50;;
51836;SDS011;38941;53.254;6.600;2023-02-28T03:38:12;9.98;;;3.53;;
51836;SDS011;38941;53.254;6.600;2023-02-28T03:40:20;9.10;;;4.57;;
51836;SDS011;38941;53.254;6.600;2023-02-28T03:42:26;7.72;;;3.63;;
51836;SDS011;38941;53.254;6.600;2023-02-28T03:44:32;8.63;;;4.72;;
51836;SDS011;38941;53.254;6.600;2023-02-28T03:46:39;9.52;;;4.63;;
51836;SDS011;38941;53.254;6.600;2023-02-28T03:49:13;12.32;;;4.50;;
51836;SDS011;38941;53.254;6.600;2023-02-28T03:51:21;10.13;;;4.88;;
51836;SDS011;38941;53.254;6.600;2023-02-28T03:53:29;10.65;;;5.05;;
51836;SDS011;38941;53.254;6.600;2023-02-28T03:55:37;11.40;;;4.70;;
51836;SDS011;38941;53.254;6.600;2023-02-28T03:57:53;10.43;;;5.05;;
51836;SDS011;38941;53.254;6.600;2023-02-28T04:00:18;12.98;;;4.80;;
51836;SDS011;38941;53.254;6.600;2023-02-28T04:02:26;10.20;;;4.85;;
51836;SDS011;38941;53.254;6.600;2023-02-28T04:04:28;8.00;;;4.53;;
51836;SDS011;38941;53.254;6.600;2023-02-28T04:06:31;11.55;;;4.82;;
51836;SDS011;38941;53.254;6.600;2023-02-28T04:08:33;9.40;;;4.20;;
51836;SDS011;38941;53.254;6.600;2023-02-28T04:10:35;9.45;;;4.78;;
51836;SDS011;38941;53.254;6.600;2023-02-28T04:12:36;8.65;;;3.97;;
51836;SDS011;38941;53.254;6.600;2023-02-28T04:14:37;9.43;;;4.97;;
51836;SDS011;38941;53.254;6.600;2023-02-28T04:16:39;7.88;;;4.55;;
51836;SDS011;38941;53.254;6.600;2023-02-28T04:18:41;11.05;;;5.10;;
51836;SDS011;38941;53.254;6.600;2023-02-28T04:20:46;12.07;;;4.25;;
51836;SDS011;38941;53.254;6.600;2023-02-28T04:22:47;9.95;;;4.90;;
51836;SDS011;38941;53.254;6.600;2023-02-28T04:24:48;10.60;;;5.53;;
51836;SDS011;38941;53.254;6.600;2023-02-28T04:26:50;7.75;;;4.63;;
51836;SDS011;38941;53.254;6.600;2023-02-28T04:28:52;9.50;;;4.97;;
51836;SDS011;38941;53.254;6.600;2023-02-28T04:30:56;9.07;;;4.68;;
51836;SDS011;38941;53.254;6.600;2023-02-28T04:32:58;7.88;;;4.53;;
51836;SDS011;38941;53.254;6.600;2023-02-28T04:35:00;10.02;;;4.88;;
51836;SDS011;38941;53.254;6.600;2023-02-28T04:37:02;8.48;;;4.20;;
51836;SDS011;38941;53.254;6.600;2023-02-28T04:39:04;8.85;;;4.72;;
51836;SDS011;38941;53.254;6.600;2023-02-28T04:41:06;10.32;;;4.75;;
51836;SDS011;38941;53.254;6.600;2023-02-28T04:43:07;8.23;;;4.00;;
51836;SDS011;38941;53.254;6.600;2023-02-28T04:45:08;5.45;;;3.53;;
51836;SDS011;38941;53.254;6.600;2023-02-28T04:47:11;6.15;;;3.60;;
51836;SDS011;38941;53.254;6.600;2023-02-28T04:49:12;4.75;;;3.08;;
51836;SDS011;38941;53.254;6.600;2023-02-28T04:51:15;7.35;;;3.20;;
51836;SDS011;38941;53.254;6.600;2023-02-28T04:53:19;5.88;;;3.10;;
51836;SDS011;38941;53.254;6.600;2023-02-28T04:55:20;5.00;;;3.00;;
51836;SDS011;38941;53.254;6.600;2023-02-28T04:57:21;5.20;;;3.17;;
51836;SDS011;38941;53.254;6.600;2023-02-28T04:59:22;9.80;;;3.50;;
51836;SDS011;38941;53.254;6.600;2023-02-28T05:01:25;5.32;;;2.97;;
51836;SDS011;38941;53.254;6.600;2023-02-28T05:03:34;4.28;;;3.00;;
51836;SDS011;38941;53.254;6.600;2023-02-28T05:05:35;6.35;;;3.63;;
51836;SDS011;38941;53.254;6.600;2023-02-28T05:07:35;5.45;;;3.25;;
51836;SDS011;38941;53.254;6.600;2023-02-28T05:09:36;4.13;;;2.83;;
51836;SDS011;38941;53.254;6.600;2023-02-28T05:11:38;6.00;;;3.30;;
51836;SDS011;38941;53.254;6.600;2023-02-28T05:13:39;5.45;;;2.90;;
51836;SDS011;38941;53.254;6.600;2023-02-28T05:15:40;6.65;;;3.17;;
51836;SDS011;38941;53.254;6.600;2023-02-28T05:17:41;6.93;;;3.13;;
51836;SDS011;38941;53.254;6.600;2023-02-28T05:19:42;6.20;;;3.25;;
51836;SDS011;38941;53.254;6.600;2023-02-28T05:21:50;4.07;;;2.60;;
51836;SDS011;38941;53.254;6.600;2023-02-28T05:23:54;6.07;;;3.17;;
51836;SDS011;38941;53.254;6.600;2023-02-28T05:25:56;8.00;;;2.95;;
51836;SDS011;38941;53.254;6.600;2023-02-28T05:27:57;5.88;;;3.55;;
51836;SDS011;38941;53.254;6.600;2023-02-28T05:29:59;6.45;;;3.00;;
51836;SDS011;38941;53.254;6.600;2023-02-28T05:32:02;5.43;;;3.03;;
51836;SDS011;38941;53.254;6.600;2023-02-28T05:34:03;5.38;;;3.10;;
51836;SDS011;38941;53.254;6.600;2023-02-28T05:36:06;6.85;;;3.22;;
51836;SDS011;38941;53.254;6.600;2023-02-28T05:38:08;5.63;;;3.20;;
51836;SDS011;38941;53.254;6.600;2023-02-28T05:40:09;6.97;;;3.00;;
51836;SDS011;38941;53.254;6.600;2023-02-28T05:42:11;6.13;;;2.83;;
51836;SDS011;38941;53.254;6.600;2023-02-28T05:44:12;8.85;;;3.33;;
51836;SDS011;38941;53.254;6.600;2023-02-28T05:46:13;5.95;;;2.88;;
51836;SDS011;38941;53.254;6.600;2023-02-28T05:48:14;10.23;;;4.53;;
51836;SDS011;38941;53.254;6.600;2023-02-28T05:50:15;7.68;;;3.10;;
51836;SDS011;38941;53.254;6.600;2023-02-28T05:52:16;8.23;;;3.50;;
51836;SDS011;38941;53.254;6.600;2023-02-28T05:54:17;8.00;;;3.90;;
51836;SDS011;38941;53.254;6.600;2023-02-28T05:56:18;4.78;;;2.92;;
51836;SDS011;38941;53.254;6.600;2023-02-28T05:58:19;8.88;;;3.63;;
51836;SDS011;38941;53.254;6.600;2023-02-28T06:00:19;8.95;;;3.80;;
51836;SDS011;38941;53.254;6.600;2023-02-28T06:02:21;6.20;;;3.50;;
51836;SDS011;38941;53.254;6.600;2023-02-28T06:04:22;6.25;;;3.35;;
51836;SDS011;38941;53.254;6.600;2023-02-28T06:06:23;7.90;;;3.72;;
51836;SDS011;38941;53.254;6.600;2023-02-28T06:08:24;7.10;;;3.78;;
51836;SDS011;38941;53.254;6.600;2023-02-28T06:10:25;7.45;;;3.72;;
51836;SDS011;38941;53.254;6.600;2023-02-28T06:12:26;6.10;;;3.58;;
51836;SDS011;38941;53.254;6.600;2023-02-28T06:14:28;7.43;;;4.05;;
51836;SDS011;38941;53.254;6.600;2023-02-28T06:16:29;7.85;;;3.80;;
51836;SDS011;38941;53.254;6.600;2023-02-28T06:18:31;9.50;;;4.28;;
51836;SDS011;38941;53.254;6.600;2023-02-28T06:20:32;7.28;;;4.07;;
51836;SDS011;38941;53.254;6.600;2023-02-28T06:22:34;8.77;;;4.95;;
51836;SDS011;38941;53.254;6.600;2023-02-28T06:24:35;7.97;;;4.40;;
51836;SDS011;38941;53.254;6.600;2023-02-28T06:26:36;9.40;;;4.65;;
51836;SDS011;38941;53.254;6.600;2023-02-28T06:28:38;8.75;;;4.60;;
51836;SDS011;38941;53.254;6.600;2023-02-28T06:30:39;10.75;;;5.05;;
51836;SDS011;38941;53.254;6.600;2023-02-28T06:32:40;13.32;;;5.72;;
51836;SDS011;38941;53.254;6.600;2023-02-28T06:34:40;12.65;;;4.78;;
51836;SDS011;38941;53.254;6.600;2023-02-28T06:36:41;9.50;;;4.70;;
51836;SDS011;38941;53.254;6.600;2023-02-28T06:38:44;9.93;;;4.70;;
51836;SDS011;38941;53.254;6.600;2023-02-28T06:40:45;9.50;;;5.30;;
51836;SDS011;38941;53.254;6.600;2023-02-28T06:42:54;8.18;;;3.95;;
51836;SDS011;38941;53.254;6.600;2023-02-28T06:44:55;8.02;;;4.68;;
51836;SDS011;38941;53.254;6.600;2023-02-28T06:46:56;7.75;;;4.18;;
51836;SDS011;38941;53.254;6.600;2023-02-28T06:48:57;10.75;;;4.82;;
51836;SDS011;38941;53.254;6.600;2023-02-28T06:51:02;10.32;;;4.60;;
51836;SDS011;38941;53.254;6.600;2023-02-28T06:53:04;9.73;;;4.75;;
51836;SDS011;38941;53.254;6.600;2023-02-28T06:55:06;10.43;;;5.53;;
51836;SDS011;38941;53.254;6.600;2023-02-28T06:57:08;9.35;;;4.78;;
51836;SDS011;38941;53.254;6.600;2023-02-28T06:59:09;10.18;;;4.97;;
51836;SDS011;38941;53.254;6.600;2023-02-28T07:01:13;10.07;;;5.35;;
51836;SDS011;38941;53.254;6.600;2023-02-28T07:03:14;9.35;;;4.60;;
51836;SDS011;38941;53.254;6.600;2023-02-28T07:05:16;11.30;;;5.13;;
51836;SDS011;38941;53.254;6.600;2023-02-28T07:07:20;9.77;;;5.47;;
51836;SDS011;38941;53.254;6.600;2023-02-28T07:09:21;10.63;;;4.38;;
51836;SDS011;38941;53.254;6.600;2023-02-28T07:11:23;11.60;;;5.63;;
51836;SDS011;38941;53.254;6.600;2023-02-28T07:13:26;9.80;;;4.63;;
51836;SDS011;38941;53.254;6.600;2023-02-28T07:15:28;17.30;;;5.13;;
51836;SDS011;38941;53.254;6.600;2023-02-28T07:17:30;12.30;;;5.68;;
51836;SDS011;38941;53.254;6.600;2023-02-28T07:19:33;10.45;;;5.30;;
51836;SDS011;38941;53.254;6.600;2023-02-28T07:21:34;12.98;;;5.60;;
51836;SDS011;38941;53.254;6.600;2023-02-28T07:23:35;12.80;;;5.90;;
51836;SDS011;38941;53.254;6.600;2023-02-28T07:25:40;14.15;;;5.72;;
51836;SDS011;38941;53.254;6.600;2023-02-28T07:27:41;17.33;;;6.65;;
51836;SDS011;38941;53.254;6.600;2023-02-28T07:29:42;11.82;;;5.88;;
51836;SDS011;38941;53.254;6.600;2023-02-28T07:31:43;16.58;;;7.10;;
51836;SDS011;38941;53.254;6.600;2023-02-28T07:33:44;14.35;;;5.93;;
51836;SDS011;38941;53.254;6.600;2023-02-28T07:35:46;14.10;;;6.38;;
51836;SDS011;38941;53.254;6.600;2023-02-28T07:37:46;14.13;;;6.88;;
51836;SDS011;38941;53.254;6.600;2023-02-28T07:39:47;13.98;;;6.18;;
51836;SDS011;38941;53.254;6.600;2023-02-28T07:41:48;10.57;;;5.65;;
51836;SDS011;38941;53.254;6.600;2023-02-28T07:43:52;15.00;;;5.68;;
51836;SDS011;38941;53.254;6.600;2023-02-28T07:45:55;12.20;;;6.13;;
51836;SDS011;38941;53.254;6.600;2023-02-28T07:47:55;13.90;;;6.13;;
51836;SDS011;38941;53.254;6.600;2023-02-28T07:49:56;15.70;;;6.25;;
51836;SDS011;38941;53.254;6.600;2023-02-28T07:51:57;11.85;;;6.18;;
51836;SDS011;38941;53.254;6.600;2023-02-28T07:53:59;11.52;;;5.47;;
51836;SDS011;38941;53.254;6.600;2023-02-28T07:56:00;13.52;;;6.15;;
51836;SDS011;38941;53.254;6.600;2023-02-28T07:58:02;13.32;;;5.57;;
51836;SDS011;38941;53.254;6.600;2023-02-28T08:00:04;12.32;;;5.85;;
51836;SDS011;38941;53.254;6.600;2023-02-28T08:02:11;11.65;;;5.20;;
51836;SDS011;38941;53.254;6.600;2023-02-28T08:04:13;11.32;;;5.63;;
51836;SDS011;38941;53.254;6.600;2023-02-28T08:06:16;17.38;;;6.18;;
51836;SDS011;38941;53.254;6.600;2023-02-28T08:08:20;13.25;;;5.97;;
51836;SDS011;38941;53.254;6.600;2023-02-28T08:10:22;11.70;;;6.13;;
51836;SDS011;38941;53.254;6.600;2023-02-28T08:12:26;12.50;;;6.30;;
51836;SDS011;38941;53.254;6.600;2023-02-28T08:14:28;11.85;;;6.07;;
51836;SDS011;38941;53.254;6.600;2023-02-28T08:16:29;12.90;;;6.38;;
51836;SDS011;38941;53.254;6.600;2023-02-28T08:18:29;13.45;;;6.20;;
51836;SDS011;38941;53.254;6.600;2023-02-28T08:20:33;14.20;;;6.22;;
51836;SDS011;38941;53.254;6.600;2023-02-28T08:22:34;11.05;;;6.10;;
51836;SDS011;38941;53.254;6.600;2023-02-28T08:24:35;11.65;;;5.75;;
51836;SDS011;38941;53.254;6.600;2023-02-28T08:26:36;15.48;;;6.63;;
51836;SDS011;38941;53.254;6.600;2023-02-28T08:28:38;12.80;;;5.95;;
51836;SDS011;38941;53.254;6.600;2023-02-28T08:30:39;12.57;;;5.82;;
51836;SDS011;38941;53.254;6.600;2023-02-28T08:32:41;15.07;;;7.18;;
51836;SDS011;38941;53.254;6.600;2023-02-28T08:34:41;15.85;;;6.65;;
51836;SDS011;38941;53.254;6.600;2023-02-28T08:36:43;11.90;;;5.68;;
51836;SDS011;38941;53.254;6.600;2023-02-28T08:38:48;11.85;;;5.20;;
51836;SDS011;38941;53.254;6.600;2023-02-28T08:40:49;12.75;;;6.05;;
51836;SDS011;38941;53.254;6.600;2023-02-28T08:42:50;10.55;;;5.70;;
51836;SDS011;38941;53.254;6.600;2023-02-28T08:44:51;13.40;;;6.43;;
51836;SDS011;38941;53.254;6.600;2023-02-28T08:46:51;13.68;;;5.68;;
51836;SDS011;38941;53.254;6.600;2023-02-28T08:48:52;12.45;;;5.75;;
51836;SDS011;38941;53.254;6.600;2023-02-28T08:50:58;11.75;;;5.95;;
51836;SDS011;38941;53.254;6.600;2023-02-28T08:53:00;13.48;;;5.80;;
51836;SDS011;38941;53.254;6.600;2023-02-28T08:55:01;13.70;;;5.70;;
51836;SDS011;38941;53.254;6.600;2023-02-28T08:57:02;12.13;;;5.72;;
51836;SDS011;38941;53.254;6.600;2023-02-28T08:59:03;11.18;;;5.68;;
51836;SDS011;38941;53.254;6.600;2023-02-28T09:01:11;14.13;;;6.20;;
51836;SDS011;38941;53.254;6.600;2023-02-28T09:03:13;11.48;;;6.60;;
51836;SDS011;38941;53.254;6.600;2023-02-28T09:05:14;12.57;;;6.20;;
51836;SDS011;38941;53.254;6.600;2023-02-28T09:07:14;14.18;;;6.97;;
51836;SDS011;38941;53.254;6.600;2023-02-28T09:09:16;9.65;;;4.72;;
51836;SDS011;38941;53.254;6.600;2023-02-28T09:11:20;10.82;;;5.85;;
51836;SDS011;38941;53.254;6.600;2023-02-28T09:13:21;14.07;;;5.55;;
51836;SDS011;38941;53.254;6.600;2023-02-28T09:15:21;13.05;;;5.38;;
51836;SDS011;38941;53.254;6.600;2023-02-28T09:17:22;13.43;;;5.70;;
51836;SDS011;38941;53.254;6.600;2023-02-28T09:19:23;13.13;;;5.93;;
51836;SDS011;38941;53.254;6.600;2023-02-28T09:21:25;12.68;;;5.75;;
51836;SDS011;38941;53.254;6.600;2023-02-28T09:23:27;11.35;;;6.32;;
51836;SDS011;38941;53.254;6.600;2023-02-28T09:25:27;11.93;;;5.10;;
51836;SDS011;38941;53.254;6.600;2023-02-28T09:27:28;13.48;;;6.03;;
51836;SDS011;38941;53.254;6.600;2023-02-28T09:29:29;13.00;;;5.53;;
51836;SDS011;38941;53.254;6.600;2023-02-28T09:31:31;14.05;;;5.97;;
51836;SDS011;38941;53.254;6.600;2023-02-28T09:33:33;15.23;;;6.05;;
51836;SDS011;38941;53.254;6.600;2023-02-28T09:35:34;12.57;;;5.78;;
51836;SDS011;38941;53.254;6.600;2023-02-28T09:37:37;8.32;;;4.72;;
51836;SDS011;38941;53.254;6.600;2023-02-28T09:39:37;14.10;;;6.22;;
51836;SDS011;38941;53.254;6.600;2023-02-28T09:41:40;14.27;;;5.28;;
51836;SDS011;38941;53.254;6.600;2023-02-28T09:43:51;10.90;;;5.38;;
51836;SDS011;38941;53.254;6.600;2023-02-28T09:48:23;12.65;;;4.72;;
51836;SDS011;38941;53.254;6.600;2023-02-28T09:52:37;7.78;;;4.25;;
51836;SDS011;38941;53.254;6.600;2023-02-28T09:54:38;8.90;;;4.72;;
51836;SDS011;38941;53.254;6.600;2023-02-28T09:56:40;6.90;;;4.22;;
51836;SDS011;38941;53.254;6.600;2023-02-28T09:58:46;9.82;;;4.55;;
51836;SDS011;38941;53.254;6.600;2023-02-28T10:00:57;9.88;;;4.70;;
51836;SDS011;38941;53.254;6.600;2023-02-28T10:05:30;8.82;;;4.70;;
51836;SDS011;38941;53.254;6.600;2023-02-28T10:09:52;7.22;;;4.30;;
51836;SDS011;38941;53.254;6.600;2023-02-28T10:11:57;10.38;;;5.10;;
51836;SDS011;38941;53.254;6.600;2023-02-28T10:14:14;10.40;;;4.88;;
51836;SDS011;38941;53.254;6.600;2023-02-28T10:18:54;7.22;;;4.40;;
51836;SDS011;38941;53.254;6.600;2023-02-28T10:21:03;7.20;;;4.32;;
51836;SDS011;38941;53.254;6.600;2023-02-28T10:25:19;10.00;;;4.43;;
51836;SDS011;38941;53.254;6.600;2023-02-28T10:27:23;8.73;;;4.07;;
51836;SDS011;38941;53.254;6.600;2023-02-28T10:29:26;7.80;;;4.07;;
51836;SDS011;38941;53.254;6.600;2023-02-28T10:31:29;9.30;;;4.32;;
51836;SDS011;38941;53.254;6.600;2023-02-28T10:33:34;6.68;;;4.35;;
51836;SDS011;38941;53.254;6.600;2023-02-28T10:35:35;6.15;;;3.35;;
51836;SDS011;38941;53.254;6.600;2023-02-28T10:37:40;7.25;;;4.03;;
51836;SDS011;38941;53.254;6.600;2023-02-28T10:39:42;6.85;;;3.40;;
51836;SDS011;38941;53.254;6.600;2023-02-28T10:41:45;11.23;;;4.32;;
51836;SDS011;38941;53.254;6.600;2023-02-28T10:43:47;7.88;;;4.15;;
51836;SDS011;38941;53.254;6.600;2023-02-28T10:46:30;11.23;;;4.80;;
51836;SDS011;38941;53.254;6.600;2023-02-28T10:52:52;8.15;;;3.58;;
51836;SDS011;38941;53.254;6.600;2023-02-28T10:54:55;7.10;;;3.70;;
51836;SDS011;38941;53.254;6.600;2023-02-28T10:59:26;8.38;;;3.88;;
51836;SDS011;38941;53.254;6.600;2023-02-28T11:01:43;11.73;;;3.45;;
51836;SDS011;38941;53.254;6.600;2023-02-28T11:03:46;6.47;;;3.53;;
51836;SDS011;38941;53.254;6.600;2023-02-28T11:05:47;6.63;;;2.58;;
51836;SDS011;38941;53.254;6.600;2023-02-28T11:07:52;6.57;;;3.25;;
51836;SDS011;38941;53.254;6.600;2023-02-28T11:10:17;7.93;;;3.13;;
51836;SDS011;38941;53.254;6.600;2023-02-28T11:12:21;6.82;;;3.60;;
51836;SDS011;38941;53.254;6.600;2023-02-28T11:14:24;7.45;;;3.45;;
51836;SDS011;38941;53.254;6.600;2023-02-28T11:16:33;6.05;;;3.10;;
51836;SDS011;38941;53.254;6.600;2023-02-28T11:20:50;5.72;;;3.17;;
51836;SDS011;38941;53.254;6.600;2023-02-28T11:22:54;5.82;;;3.00;;
51836;SDS011;38941;53.254;6.600;2023-02-28T11:24:57;5.30;;;2.75;;
51836;SDS011;38941;53.254;6.600;2023-02-28T11:27:02;5.97;;;3.47;;
51836;SDS011;38941;53.254;6.600;2023-02-28T11:29:09;7.22;;;3.35;;
51836;SDS011;38941;53.254;6.600;2023-02-28T11:31:30;4.85;;;2.55;;
51836;SDS011;38941;53.254;6.600;2023-02-28T11:33:37;4.47;;;2.53;;
51836;SDS011;38941;53.254;6.600;2023-02-28T11:35:45;4.80;;;3.17;;
51836;SDS011;38941;53.254;6.600;2023-02-28T11:37:48;8.80;;;2.92;;
51836;SDS011;38941;53.254;6.600;2023-02-28T11:39:48;6.28;;;3.03;;
51836;SDS011;38941;53.254;6.600;2023-02-28T11:46:56;9.00;;;4.05;;
51836;SDS011;38941;53.254;6.600;2023-02-28T11:49:47;10.05;;;4.43;;
51836;SDS011;38941;53.254;6.600;2023-02-28T11:51:23;6.72;;;3.40;;
51836;SDS011;38941;53.254;6.600;2023-02-28T11:55:50;5.63;;;3.80;;
51836;SDS011;38941;53.254;6.600;2023-02-28T12:08:10;5.68;;;3.50;;
51836;SDS011;38941;53.254;6.600;2023-02-28T12:10:57;5.88;;;2.97;;
51836;SDS011;38941;53.254;6.600;2023-02-28T12:13:12;5.88;;;3.05;;
51836;SDS011;38941;53.254;6.600;2023-02-28T12:27:05;5.47;;;3.20;;
51836;SDS011;38941;53.254;6.600;2023-02-28T12:31:18;7.50;;;3.30;;
51836;SDS011;38941;53.254;6.600;2023-02-28T12:33:24;5.85;;;3.35;;
51836;SDS011;38941;53.254;6.600;2023-02-28T12:35:40;5.70;;;3.30;;
51836;SDS011;38941;53.254;6.600;2023-02-28T12:38:12;5.47;;;3.00;;
51836;SDS011;38941;53.254;6.600;2023-02-28T12:40:22;7.13;;;3.47;;
51836;SDS011;38941;53.254;6.600;2023-02-28T12:42:30;7.03;;;3.70;;
51836;SDS011;38941;53.254;6.600;2023-02-28T12:44:56;6.85;;;3.60;;
51836;SDS011;38941;53.254;6.600;2023-02-28T12:47:00;5.85;;;3.13;;
51836;SDS011;38941;53.254;6.600;2023-02-28T12:49:12;7.50;;;4.15;;
51836;SDS011;38941;53.254;6.600;2023-02-28T12:51:34;7.93;;;3.25;;
51836;SDS011;38941;53.254;6.600;2023-02-28T13:03:51;5.28;;;3.35;;
51836;SDS011;38941;53.254;6.600;2023-02-28T13:10:49;5.57;;;2.85;;
51836;SDS011;38941;53.254;6.600;2023-02-28T13:12:55;8.05;;;3.15;;
51836;SDS011;38941;53.254;6.600;2023-02-28T13:15:05;4.32;;;2.80;;
51836;SDS011;38941;53.254;6.600;2023-02-28T13:17:22;10.05;;;3.60;;
51836;SDS011;38941;53.254;6.600;2023-02-28T13:19:26;4.65;;;3.20;;
51836;SDS011;38941;53.254;6.600;2023-02-28T13:21:32;5.15;;;2.80;;
51836;SDS011;38941;53.254;6.600;2023-02-28T13:25:58;6.80;;;3.55;;
51836;SDS011;38941;53.254;6.600;2023-02-28T13:28:02;7.28;;;3.38;;
51836;SDS011;38941;53.254;6.600;2023-02-28T13:33:17;5.88;;;3.15;;
51836;SDS011;38941;53.254;6.600;2023-02-28T13:37:44;7.43;;;3.80;;
51836;SDS011;38941;53.254;6.600;2023-02-28T13:39:58;6.18;;;3.03;;
51836;SDS011;38941;53.254;6.600;2023-02-28T13:44:31;6.43;;;3.40;;
51836;SDS011;38941;53.254;6.600;2023-02-28T13:51:54;8.10;;;3.90;;
51836;SDS011;38941;53.254;6.600;2023-02-28T13:53:59;7.57;;;3.92;;
51836;SDS011;38941;53.254;6.600;2023-02-28T13:56:32;6.45;;;4.28;;
51836;SDS011;38941;53.254;6.600;2023-02-28T14:05:35;8.57;;;4.28;;
51836;SDS011;38941;53.254;6.600;2023-02-28T14:08:12;6.55;;;3.63;;
51836;SDS011;38941;53.254;6.600;2023-02-28T14:16:47;6.30;;;3.78;;
51836;SDS011;38941;53.254;6.600;2023-02-28T14:20:57;7.13;;;3.97;;
51836;SDS011;38941;53.254;6.600;2023-02-28T14:23:04;5.50;;;3.42;;
51836;SDS011;38941;53.254;6.600;2023-02-28T14:28:04;8.48;;;4.57;;
51836;SDS011;38941;53.254;6.600;2023-02-28T14:30:04;5.78;;;3.58;;
51836;SDS011;38941;53.254;6.600;2023-02-28T14:34:43;6.78;;;3.60;;
51836;SDS011;38941;53.254;6.600;2023-02-28T14:36:50;6.82;;;4.45;;
51836;SDS011;38941;53.254;6.600;2023-02-28T14:38:57;6.43;;;4.28;;
51836;SDS011;38941;53.254;6.600;2023-02-28T14:41:03;7.18;;;4.13;;
51836;SDS011;38941;53.254;6.600;2023-02-28T14:43:17;7.00;;;4.75;;
51836;SDS011;38941;53.254;6.600;2023-02-28T14:45:23;7.88;;;4.10;;
51836;SDS011;38941;53.254;6.600;2023-02-28T14:47:26;8.88;;;4.07;;
51836;SDS011;38941;53.254;6.600;2023-02-28T14:49:35;7.88;;;4.25;;
51836;SDS011;38941;53.254;6.600;2023-02-28T14:51:38;8.10;;;4.20;;